Time;durP1;ratioP1;P1;durP2;ratioP2;P2;SDS_P1;SDS_P2;PMS_P1;PMS_P2;Temp;Humidity;BMP_temperature;BMP_pressure;BME280_temperature;BME280_humidity;BME280_pressure;Samples;Min_cycle;Max_cycle;Signal;HPM_P1;HPM_P2
2021/09/24 00:05:22;;;;;;;7.35;3.60;;;16.70;60.60;;;;;;4864082;29;20039;-94
2021/09/24 00:11:11;;;;;;;11.55;4.15;;;16.70;61.00;;;;;;4864131;29;20447;-95
2021/09/24 00:16:59;;;;;;;7.38;3.60;;;16.60;61.40;;;;;;4863951;29;20586;-95
2021/09/24 00:22:48;;;;;;;8.38;4.05;;;16.60;61.40;;;;;;4863892;29;20170;-96
2021/09/24 00:28:37;;;;;;;8.20;4.20;;;16.50;61.50;;;;;;4863785;29;20056;-94
2021/09/24 00:34:26;;;;;;;7.60;3.78;;;16.40;61.80;;;;;;4863326;29;20044;-93
2021/09/24 00:40:16;;;;;;;7.32;3.92;;;16.40;61.90;;;;;;4863051;29;20135;-92
2021/09/24 00:46:05;;;;;;;7.78;4.15;;;16.30;62.00;;;;;;4862299;29;20086;-94
2021/09/24 00:51:54;;;;;;;9.00;4.38;;;16.20;62.20;;;;;;4863123;29;20553;-94
2021/09/24 01:01:40;;;;;;;9.13;4.35;;;16.10;62.70;;;;;;4865395;29;20047;-96
2021/09/24 01:07:34;;;;;;;7.88;4.32;;;16.00;62.90;;;;;;4863023;29;20390;-95
2021/09/24 01:13:23;;;;;;;8.93;4.18;;;16.00;63.10;;;;;;4862642;29;20048;-95
2021/09/24 01:19:12;;;;;;;8.93;4.47;;;15.90;63.00;;;;;;4862733;29;20040;-94
2021/09/24 01:25:00;;;;;;;10.45;4.60;;;15.70;63.20;;;;;;4862686;29;20427;-94
2021/09/24 01:30:49;;;;;;;7.90;4.38;;;15.60;63.10;;;;;;4862661;29;20382;-94
2021/09/24 01:36:38;;;;;;;8.45;4.88;;;15.50;63.50;;;;;;4862695;29;20113;-95
2021/09/24 01:42:27;;;;;;;8.75;4.63;;;15.40;63.70;;;;;;4862549;29;20085;-95
2021/09/24 01:48:15;;;;;;;9.48;4.72;;;15.30;64.10;;;;;;4862343;29;20582;-94
2021/09/24 01:54:05;;;;;;;9.38;4.97;;;15.20;64.30;;;;;;4862230;29;20061;-94
2021/09/24 02:03:47;;;;;;;8.77;5.05;;;15.10;64.80;;;;;;4868535;29;20036;-93
2021/09/24 02:09:35;;;;;;;8.43;4.60;;;15.10;65.20;;;;;;4868928;29;20039;-94
2021/09/24 02:15:25;;;;;;;9.00;5.13;;;15.00;65.30;;;;;;4868360;29;20036;-94
2021/09/24 02:21:14;;;;;;;8.63;5.07;;;15.00;65.50;;;;;;4868307;29;20410;-94
2021/09/24 02:27:02;;;;;;;11.68;5.22;;;14.90;65.90;;;;;;4868137;29;20040;-94
2021/09/24 02:32:51;;;;;;;9.90;4.93;;;14.90;66.80;;;;;;4868107;29;20057;-94
2021/09/24 02:38:40;;;;;;;13.38;5.60;;;14.80;66.10;;;;;;4868288;29;20157;-94
2021/09/24 02:44:29;;;;;;;8.80;4.60;;;14.80;66.40;;;;;;4868120;29;20044;-95
2021/09/24 02:50:18;;;;;;;9.38;5.10;;;14.70;66.70;;;;;;4868111;29;20047;-94
2021/09/24 02:56:07;;;;;;;9.35;5.00;;;14.60;66.90;;;;;;4868069;29;20151;-95
2021/09/24 03:05:49;;;;;;;10.93;5.30;;;14.60;67.20;;;;;;4872119;29;20640;-94
2021/09/24 03:11:38;;;;;;;9.50;5.53;;;14.60;67.90;;;;;;4871399;29;20431;-95
2021/09/24 03:17:26;;;;;;;9.00;5.65;;;14.60;68.10;;;;;;4865228;29;20406;-95
2021/09/24 03:23:15;;;;;;;10.02;5.63;;;14.60;68.30;;;;;;4865623;29;20045;-96
2021/09/24 03:29:03;;;;;;;9.48;5.50;;;14.60;68.30;;;;;;4864783;29;20089;-94
2021/09/24 03:34:53;;;;;;;10.43;5.43;;;14.60;68.60;;;;;;4864886;29;20073;-96
2021/09/24 03:40:41;;;;;;;9.75;5.60;;;14.60;68.70;;;;;;4864606;29;20052;-95
2021/09/24 03:46:29;;;;;;;10.18;5.65;;;14.60;68.80;;;;;;4864878;29;20040;-95
2021/09/24 03:52:19;;;;;;;10.15;5.88;;;14.50;69.00;;;;;;4864445;29;20089;-94
2021/09/24 03:58:07;;;;;;;11.02;5.50;;;14.50;69.10;;;;;;4864274;29;20090;-94
2021/09/24 04:08:01;;;;;;;11.70;6.03;;;14.50;69.30;;;;;;4864131;29;20119;-94
2021/09/24 04:13:54;;;;;;;10.07;5.45;;;14.40;69.60;;;;;;4863750;29;20052;-93
2021/09/24 04:19:47;;;;;;;11.45;6.10;;;14.40;69.40;;;;;;4863418;29;20079;-92
2021/09/24 04:25:37;;;;;;;9.68;6.47;;;14.30;69.60;;;;;;4864192;29;20035;-94
2021/09/24 04:31:25;;;;;;;11.45;7.13;;;14.30;69.20;;;;;;4863817;29;20563;-94
2021/09/24 04:37:14;;;;;;;11.07;6.80;;;14.10;69.30;;;;;;4864520;29;20062;-94
2021/09/24 04:43:03;;;;;;;11.02;7.03;;;14.10;69.80;;;;;;4867826;29;20049;-91
2021/09/24 04:48:53;;;;;;;12.05;6.80;;;14.20;70.40;;;;;;4863840;29;20121;-93
2021/09/24 04:54:42;;;;;;;15.68;7.43;;;14.30;70.80;;;;;;4863379;29;20137;-95
2021/09/24 05:00:32;;;;;;;10.65;6.47;;;14.40;70.90;;;;;;4863888;29;20040;-94
2021/09/24 05:10:24;;;;;;;10.85;6.75;;;14.50;70.90;;;;;;4864527;29;20044;-94
2021/09/24 05:16:15;;;;;;;11.23;6.40;;;14.60;71.00;;;;;;4863246;29;20485;-90
2021/09/24 05:22:04;;;;;;;12.50;6.78;;;14.70;71.10;;;;;;4862217;29;20104;-90
2021/09/24 05:27:54;;;;;;;11.05;6.43;;;14.80;70.90;;;;;;4862392;29;20077;-90
2021/09/24 05:33:42;;;;;;;12.68;6.55;;;14.80;70.80;;;;;;4862207;29;20048;-91
2021/09/24 05:39:31;;;;;;;10.60;6.55;;;14.90;70.90;;;;;;4862481;29;20064;-89
2021/09/24 05:45:20;;;;;;;13.45;7.05;;;15.00;71.00;;;;;;4862921;29;20040;-95
2021/09/24 05:51:09;;;;;;;11.85;6.65;;;15.20;71.10;;;;;;4862601;29;20032;-90
2021/09/24 05:56:58;;;;;;;13.27;7.10;;;15.30;71.10;;;;;;4861919;29;20036;-89
2021/09/24 07:26:04;;;;;;;11.80;6.70;;;18.00;67.40;;;;;;4971709;23;20061;-91
2021/09/24 07:32:11;;;;;;;11.13;6.13;;;18.20;66.70;;;;;;4829531;29;20078;-91
2021/09/24 08:38:35;;;;;;;9.25;5.15;;;20.50;62.10;;;;;;4844359;29;20038;-87
2021/09/24 08:44:34;;;;;;;8.57;4.63;;;20.70;61.40;;;;;;4798361;29;20033;-88
2021/09/24 08:50:25;;;;;;;11.75;5.28;;;21.00;61.10;;;;;;4823891;29;20134;-88
2021/09/24 08:56:14;;;;;;;9.20;5.20;;;21.20;60.90;;;;;;4824062;29;20499;-88
2021/09/24 09:02:12;;;;;;;9.55;5.03;;;21.50;60.40;;;;;;4824127;29;20114;-91
2021/09/24 09:08:18;;;;;;;10.52;4.97;;;21.70;59.70;;;;;;4823561;29;20415;-87
2021/09/24 09:14:06;;;;;;;10.00;5.10;;;22.10;59.70;;;;;;4823323;29;20149;-85
2021/09/24 09:20:18;;;;;;;11.27;4.93;;;22.30;58.60;;;;;;4843435;29;20033;-85
2021/09/24 09:26:09;;;;;;;8.15;4.60;;;22.40;57.90;;;;;;4843466;29;20506;-85
2021/09/24 09:32:00;;;;;;;9.20;4.22;;;22.60;57.60;;;;;;4843018;29;20110;-85
2021/09/24 09:37:49;;;;;;;9.77;4.35;;;23.00;57.90;;;;;;4843366;29;20542;-85
2021/09/24 09:43:50;;;;;;;8.68;4.05;;;23.50;56.70;;;;;;4842984;29;20085;-85
2021/09/24 09:49:38;;;;;;;7.45;3.55;;;23.80;55.50;;;;;;4843126;29;20053;-85
2021/09/24 09:55:30;;;;;;;8.02;3.58;;;24.20;55.40;;;;;;4842956;29;20025;-85
2021/09/24 10:01:19;;;;;;;7.47;3.25;;;24.70;54.60;;;;;;4842840;29;20041;-85
2021/09/24 10:07:19;;;;;;;6.88;3.17;;;25.00;52.90;;;;;;4842802;29;20040;-85
2021/09/24 10:13:09;;;;;;;6.80;3.13;;;25.30;52.60;;;;;;4842662;29;20094;-85
2021/09/24 10:19:00;;;;;;;7.05;3.10;;;25.60;52.40;;;;;;4846402;29;20024;-85
2021/09/24 10:24:48;;;;;;;7.40;3.45;;;25.80;51.00;;;;;;4846334;29;20041;-85
2021/09/24 10:30:38;;;;;;;6.15;2.83;;;25.80;50.30;;;;;;4846179;29;20074;-85
2021/09/24 10:40:26;;;;;;;6.45;2.83;;;25.90;49.30;;;;;;4846457;29;20053;-85
2021/09/24 10:46:43;;;;;;;7.15;2.85;;;26.00;49.40;;;;;;4846094;29;20036;-85
2021/09/24 10:52:36;;;;;;;7.20;2.90;;;26.30;48.80;;;;;;4845989;29;20053;-85
2021/09/24 10:58:31;;;;;;;6.95;2.97;;;26.60;48.40;;;;;;4845775;29;20498;-85
2021/09/24 11:04:20;;;;;;;8.07;2.90;;;27.00;48.30;;;;;;4845868;29;20040;-85
2021/09/24 11:10:09;;;;;;;4.88;2.60;;;27.60;48.10;;;;;;4845598;29;20532;-85
2021/09/24 11:16:03;;;;;;;6.88;2.97;;;28.70;46.60;;;;;;4845755;29;20098;-85
2021/09/24 11:21:59;;;;;;;7.55;2.67;;;28.90;45.20;;;;;;4845257;29;20078;-85
2021/09/24 11:27:53;;;;;;;5.75;2.70;;;29.20;44.70;;;;;;4845230;29;20082;-85
2021/09/24 11:33:43;;;;;;;5.00;2.70;;;29.10;43.30;;;;;;4845098;29;20394;-85
2021/09/24 11:43:39;;;;;;;4.60;2.22;;;29.20;44.70;;;;;;4845243;29;20081;-85
2021/09/24 11:49:53;;;;;;;4.85;2.35;;;29.50;42.20;;;;;;4844900;29;20111;-83
2021/09/24 11:55:45;;;;;;;3.72;2.40;;;29.50;42.30;;;;;;4844962;29;20069;-83
2021/09/24 12:01:35;;;;;;;6.88;2.72;;;29.60;42.40;;;;;;4844689;29;20041;-84
2021/09/24 12:07:25;;;;;;;6.85;2.60;;;29.70;42.40;;;;;;4844633;29;20071;-84
2021/09/24 12:13:17;;;;;;;5.32;2.03;;;29.80;42.00;;;;;;4844402;29;20045;-83
2021/09/24 12:19:11;;;;;;;5.80;2.45;;;29.70;40.80;;;;;;4844627;29;20087;-84
2021/09/24 12:25:00;;;;;;;6.93;3.33;;;29.40;40.30;;;;;;4844307;29;20041;-83
2021/09/24 12:30:48;;;;;;;4.78;2.10;;;30.00;42.50;;;;;;4844100;29;20037;-84
2021/09/24 12:36:50;;;;;;;6.00;2.67;;;30.20;38.90;;;;;;4844294;29;20129;-84
2021/09/24 12:46:52;;;;;;;5.20;2.15;;;30.80;37.50;;;;;;4843944;29;20455;-84
2021/09/24 12:52:41;;;;;;;4.97;2.17;;;31.40;40.50;;;;;;4843849;29;20057;-84
2021/09/24 12:58:34;;;;;;;4.43;2.15;;;33.90;39.80;;;;;;4843911;29;20040;-84
2021/09/24 13:04:23;;;;;;;5.40;2.10;;;33.40;34.00;;;;;;4846496;29;20129;-84
2021/09/24 13:10:14;;;;;;;2.30;1.73;;;32.60;36.60;;;;;;4845884;29;20120;-83
2021/09/24 13:16:03;;;;;;;3.65;2.00;;;32.40;36.80;;;;;;4845699;29;20424;-83
2021/09/24 13:21:52;;;;;;;4.15;2.00;;;32.60;34.00;;;;;;4843627;29;20399;-84
2021/09/24 13:27:41;;;;;;;3.20;2.00;;;33.00;36.90;;;;;;4846481;29;20037;-84
2021/09/24 13:33:29;;;;;;;3.92;2.20;;;34.50;34.10;;;;;;4844611;29;20109;-84
2021/09/24 13:39:18;;;;;;;2.60;1.90;;;34.40;34.00;;;;;;4843561;29;20494;-84
2021/09/24 13:49:08;;;;;;;2.95;2.03;;;33.00;31.70;;;;;;4843137;29;20185;-83
2021/09/24 13:54:57;;;;;;;2.50;1.88;;;32.90;32.90;;;;;;4843170;29;20052;-84
2021/09/24 14:00:46;;;;;;;3.47;2.05;;;34.60;35.30;;;;;;4843167;29;20033;-84
2021/09/24 14:06:35;;;;;;;3.53;2.30;;;34.60;31.10;;;;;;4843095;29;20094;-84
2021/09/24 14:12:23;;;;;;;2.97;1.98;;;35.70;33.00;;;;;;4842613;29;20523;-85
2021/09/24 14:18:12;;;;;;;4.03;2.08;;;36.90;31.70;;;;;;4843064;29;20040;-84
2021/09/24 14:24:02;;;;;;;3.25;2.00;;;36.30;29.40;;;;;;4842705;29;20051;-83
2021/09/24 14:29:50;;;;;;;6.90;3.75;;;34.70;32.40;;;;;;4842606;29;20152;-84
2021/09/24 14:35:40;;;;;;;3.90;1.92;;;36.20;32.30;;;;;;4842552;29;20033;-84
2021/09/24 14:41:29;;;;;;;3.85;2.00;;;34.70;30.30;;;;;;4842783;29;20106;-84
2021/09/24 14:51:14;;;;;;;2.72;1.75;;;34.90;30.00;;;;;;4842752;29;20045;-83
2021/09/24 14:57:04;;;;;;;5.47;2.15;;;33.30;32.30;;;;;;4842414;29;20045;-84
2021/09/24 15:02:52;;;;;;;2.60;1.90;;;35.00;32.40;;;;;;4842629;29;20544;-84
2021/09/24 15:08:41;;;;;;;3.30;1.90;;;35.40;30.30;;;;;;4845630;29;20033;-84
2021/09/24 15:14:44;;;;;;;2.95;1.73;;;35.50;30.80;;;;;;4845586;29;20065;-84
2021/09/24 15:20:32;;;;;;;3.05;1.75;;;35.20;29.90;;;;;;4845463;29;20086;-84
2021/09/24 15:26:21;;;;;;;4.93;1.63;;;34.70;30.00;;;;;;4845336;29;20078;-84
2021/09/24 15:32:10;;;;;;;3.13;1.90;;;34.30;30.40;;;;;;4845375;29;20542;-83
2021/09/24 15:37:58;;;;;;;5.10;2.15;;;33.90;30.70;;;;;;4845384;29;20112;-84
2021/09/24 15:43:47;;;;;;;5.47;1.90;;;33.40;30.50;;;;;;4845155;29;20434;-84
2021/09/24 15:53:24;;;;;;;4.07;2.05;;;32.30;31.00;;;;;;4845024;29;20114;-83
2021/09/24 15:59:14;;;;;;;3.33;1.75;;;31.30;31.40;;;;;;4844771;29;20086;-83
2021/09/24 16:05:02;;;;;;;5.47;2.20;;;30.10;31.70;;;;;;4844994;29;20116;-83
2021/09/24 16:10:52;;;;;;;5.53;2.20;;;29.00;33.20;;;;;;4844884;29;20408;-83
2021/09/24 16:16:42;;;;;;;3.90;1.95;;;28.10;33.80;;;;;;4844593;29;20536;-83
2021/09/24 16:22:31;;;;;;;4.22;2.20;;;27.40;34.70;;;;;;4844737;29;20082;-83
2021/09/24 16:28:20;;;;;;;6.03;2.15;;;26.70;35.60;;;;;;4844627;29;20089;-83
2021/09/24 16:34:10;;;;;;;3.30;1.98;;;26.20;36.10;;;;;;4844241;29;20041;-83
2021/09/24 16:39:58;;;;;;;5.90;2.30;;;25.60;36.70;;;;;;4844417;29;20140;-84
2021/09/24 16:45:48;;;;;;;6.35;2.72;;;25.20;37.60;;;;;;4844004;29;20044;-83
2021/09/24 16:55:33;;;;;;;8.07;2.60;;;24.60;38.10;;;;;;4844200;29;20078;-83
2021/09/24 17:01:23;;;;;;;7.13;2.70;;;24.10;38.80;;;;;;4844003;29;20040;-84
2021/09/24 17:07:13;;;;;;;6.25;2.90;;;23.70;39.30;;;;;;4843726;29;20086;-83
2021/09/24 17:13:03;;;;;;;7.75;3.25;;;23.30;39.80;;;;;;4843518;29;20128;-84
2021/09/24 17:18:53;;;;;;;9.18;3.65;;;22.70;40.50;;;;;;4843540;29;20033;-84
2021/09/24 17:24:43;;;;;;;8.25;3.38;;;22.20;41.30;;;;;;4851284;29;20053;-83
2021/09/24 17:30:31;;;;;;;7.60;3.53;;;21.80;42.30;;;;;;4847673;29;20089;-84
2021/09/24 17:36:19;;;;;;;7.85;3.35;;;21.30;42.90;;;;;;4849308;29;20055;-86
2021/09/24 17:42:11;;;;;;;7.93;3.50;;;21.00;43.80;;;;;;4849824;29;20037;-86
2021/09/24 17:48:00;;;;;;;9.25;4.03;;;20.70;44.50;;;;;;4848954;29;20062;-84
2021/09/24 17:57:43;;;;;;;11.48;3.92;;;20.30;45.20;;;;;;4848604;29;20159;-83
2021/09/24 18:03:38;;;;;;;9.35;3.55;;;20.00;46.20;;;;;;4846486;29;20556;-84
2021/09/24 18:09:26;;;;;;;8.85;3.15;;;19.80;46.80;;;;;;4847711;29;20051;-83
2021/09/24 18:15:20;;;;;;;9.63;4.88;;;19.40;47.20;;;;;;4847022;29;20057;-84
2021/09/24 18:21:11;;;;;;;10.85;5.63;;;19.10;47.90;;;;;;4848510;29;20074;-83
2021/09/24 18:27:00;;;;;;;12.55;6.10;;;18.90;48.60;;;;;;4848945;29;20033;-83
2021/09/24 18:41:37;;;;;;;10.45;6.30;;;18.40;50.20;;;;;;4881530;23;20059;-96
2021/09/24 18:54:28;;;;;;;9.95;6.05;;;18.10;51.80;;;;;;4892512;29;20085;-92
2021/09/24 19:00:21;;;;;;;10.27;5.95;;;18.00;52.40;;;;;;4891135;29;20065;-89
2021/09/24 19:06:12;;;;;;;11.00;6.13;;;17.80;52.80;;;;;;4892374;29;20130;-93
2021/09/24 19:12:02;;;;;;;12.82;7.05;;;17.60;53.30;;;;;;4893574;29;20054;-94
2021/09/24 19:17:52;;;;;;;13.90;7.95;;;17.40;53.80;;;;;;4892618;29;20032;-93
2021/09/24 19:23:45;;;;;;;13.13;8.27;;;17.20;54.40;;;;;;4893561;29;20028;-93
2021/09/24 19:29:34;;;;;;;11.73;7.80;;;17.00;55.10;;;;;;4894143;29;20097;-93
2021/09/24 19:35:26;;;;;;;15.55;7.72;;;16.80;55.50;;;;;;4892784;29;20064;-93
2021/09/24 19:41:16;;;;;;;11.90;7.75;;;16.60;56.10;;;;;;4890265;29;20036;-91
2021/09/24 19:47:06;;;;;;;12.98;6.65;;;16.50;56.80;;;;;;4891291;29;20529;-92
2021/09/24 19:52:56;;;;;;;12.82;6.10;;;16.50;57.40;;;;;;4890647;29;20047;-93
2021/09/24 19:58:45;;;;;;;12.68;6.80;;;16.40;57.90;;;;;;4891910;29;20085;-93
2021/09/24 20:04:34;;;;;;;13.50;7.28;;;16.30;58.20;;;;;;4890233;29;20109;-90
2021/09/24 20:10:23;;;;;;;11.38;7.75;;;16.20;58.70;;;;;;4890068;29;20111;-91
2021/09/24 20:16:11;;;;;;;13.63;7.70;;;16.00;58.80;;;;;;4887830;29;20550;-92
2021/09/24 20:22:02;;;;;;;14.20;7.18;;;15.90;59.40;;;;;;4887805;29;20168;-94
2021/09/24 20:27:50;;;;;;;12.85;7.25;;;15.70;59.80;;;;;;4887989;29;20117;-93
2021/09/24 20:33:46;;;;;;;11.30;7.40;;;15.60;60.20;;;;;;4885721;29;20155;-96
2021/09/24 20:50:28;;;;;;;12.07;7.70;;;15.20;61.10;;;;;;4843983;29;20098;-91
2021/09/24 20:56:17;;;;;;;13.07;7.88;;;15.10;61.70;;;;;;4843393;29;20532;-92
2021/09/24 21:02:06;;;;;;;11.27;7.65;;;14.90;62.10;;;;;;4841929;29;20029;-93
2021/09/24 21:07:54;;;;;;;12.70;7.38;;;14.80;62.50;;;;;;4843408;29;20154;-92
2021/09/24 21:13:42;;;;;;;13.43;8.68;;;14.70;62.90;;;;;;4851460;29;20125;-92
2021/09/24 21:19:30;;;;;;;12.25;7.78;;;14.60;63.20;;;;;;4863968;29;20092;-93
2021/09/24 21:25:20;;;;;;;11.48;7.47;;;14.50;63.50;;;;;;4862784;29;20044;-92
2021/09/24 21:31:10;;;;;;;12.95;7.88;;;14.40;63.80;;;;;;4863025;29;20032;-92
2021/09/24 21:36:58;;;;;;;12.85;7.93;;;14.30;64.20;;;;;;4863008;29;20045;-93
2021/09/24 21:42:47;;;;;;;11.30;7.78;;;14.20;64.40;;;;;;4863068;29;20036;-93
2021/09/24 21:48:36;;;;;;;11.70;7.20;;;14.10;64.80;;;;;;4870247;29;20531;-92
2021/09/24 21:54:25;;;;;;;13.32;7.95;;;13.90;65.00;;;;;;4880695;29;20127;-91
2021/09/24 22:00:17;;;;;;;13.27;7.57;;;13.80;65.30;;;;;;4880624;29;20036;-91
2021/09/24 22:06:06;;;;;;;12.82;8.05;;;13.70;65.50;;;;;;4880703;29;20097;-92
2021/09/24 22:11:56;;;;;;;11.48;8.52;;;13.70;65.90;;;;;;4880677;29;20036;-91
2021/09/24 22:17:45;;;;;;;12.85;8.55;;;13.60;66.10;;;;;;4884792;29;20088;-91
2021/09/24 22:23:34;;;;;;;13.18;9.18;;;13.50;66.40;;;;;;4885140;29;20040;-92
2021/09/24 22:29:24;;;;;;;12.98;9.18;;;13.40;66.70;;;;;;4884837;29;20097;-92
2021/09/24 22:35:12;;;;;;;11.85;8.95;;;13.30;66.90;;;;;;4884805;29;20091;-91
2021/09/24 22:41:03;;;;;;;13.48;9.23;;;13.20;67.20;;;;;;4902967;29;20057;-95
2021/09/24 22:46:51;;;;;;;12.13;8.45;;;13.10;67.40;;;;;;4884247;29;20032;-92
2021/09/24 22:52:40;;;;;;;12.75;8.73;;;13.00;67.60;;;;;;4884627;29;20043;-94
2021/09/24 22:58:29;;;;;;;12.68;8.80;;;13.00;67.80;;;;;;4884533;29;20347;-94
2021/09/24 23:04:18;;;;;;;12.77;9.73;;;12.90;68.10;;;;;;4883844;29;20072;-91
2021/09/24 23:10:08;;;;;;;14.25;9.77;;;12.80;68.30;;;;;;4883719;29;20501;-92
2021/09/24 23:15:59;;;;;;;13.50;9.85;;;12.70;68.50;;;;;;4883764;29;20056;-91
2021/09/24 23:21:49;;;;;;;14.30;10.10;;;12.70;68.70;;;;;;4883963;29;20085;-92
2021/09/24 23:27:38;;;;;;;12.57;9.73;;;12.60;68.90;;;;;;4883735;29;20085;-92
2021/09/24 23:33:27;;;;;;;13.05;9.50;;;12.50;69.10;;;;;;4883618;29;20132;-92
2021/09/24 23:39:15;;;;;;;14.35;9.98;;;12.50;69.30;;;;;;4883811;29;20043;-94
2021/09/24 23:45:06;;;;;;;11.57;8.60;;;12.40;69.40;;;;;;4883794;29;20520;-93
2021/09/24 23:54:41;;;;;;;13.57;9.65;;;12.30;69.70;;;;;;4883517;29;20060;-93
